BNWP weather

Brisbane Water Police Helipad
Brisbane, Queensland, Australia

Public forecast

Using degrees Celsius for public forecast. Weather courtesy of forecast.io.

Closest aviation weather report (METAR) to Brisbane Water Police Helipad

Closest report is Brisbane International Airport, 2.7 nm (5.0 km) WNW. Retrieved 2019/10/23 06:30 UTC (0 seconds ago):

YBBN 230630Z 07010KT 9999 FEW030 22/13 Q1021

Closest aviation forecast (TAF) to Brisbane Water Police Helipad

Closest forecast is Brisbane International Airport, 2.7 nm (5.0 km) WNW. Retrieved 2019/10/23 06:35 UTC (0 seconds ago):

TAF YBBN 230514Z 2306/2412 05013KT 9999 FEW040 FM230900 03008KT 9999 FEW035 FM231400 23006KT 9999 FEW030 FM232300 03012KT CAVOK